createdAt,value
2023-01-30T00:01:37.399Z,96508.19
2023-01-30T00:04:03.916Z,96499.63
2023-01-30T00:06:30.432Z,96498.00
2023-01-30T00:08:59.567Z,96499.16
2023-01-30T00:11:28.760Z,96486.97
2023-01-30T00:13:55.239Z,96489.81
2023-01-30T00:16:21.866Z,96483.81
2023-01-30T00:18:48.528Z,96477.84
2023-01-30T00:21:15.705Z,96476.09
2023-01-30T00:23:42.480Z,96478.97
2023-01-30T00:26:09.885Z,96480.03
2023-01-30T00:28:36.597Z,96473.94
2023-01-30T00:31:03.189Z,96481.91
2023-01-30T00:33:29.944Z,96481.19
2023-01-30T00:35:57.052Z,96475.38
2023-01-30T00:38:25.822Z,96474.38
2023-01-30T00:40:52.448Z,96473.69
2023-01-30T00:43:38.489Z,96476.50
2023-01-30T00:46:28.332Z,96477.28
2023-01-30T00:48:54.875Z,96472.09
2023-01-30T00:51:21.363Z,96466.09
2023-01-30T00:53:47.838Z,96463.56
2023-01-30T00:56:14.395Z,96470.41
2023-01-30T00:58:40.932Z,96467.00
2023-01-30T01:01:07.465Z,96468.69
2023-01-30T01:03:33.947Z,96469.69
2023-01-30T01:06:00.877Z,96471.63
2023-01-30T01:08:27.373Z,96467.47
2023-01-30T01:10:53.864Z,96464.91
2023-01-30T01:13:20.380Z,96465.88
2023-01-30T01:15:46.836Z,96461.66
2023-01-30T01:18:15.595Z,96466.78
2023-01-30T01:20:42.070Z,96459.66
2023-01-30T01:23:10.188Z,96465.91
2023-01-30T01:25:36.710Z,96457.19
2023-01-30T01:28:03.583Z,96458.09
2023-01-30T01:30:30.115Z,96447.84
2023-01-30T01:32:56.880Z,96455.66
2023-01-30T01:35:23.385Z,96446.31
2023-01-30T01:37:53.060Z,96442.00
2023-01-30T01:40:38.417Z,96448.00
2023-01-30T01:43:17.659Z,96445.31
2023-01-30T01:45:45.141Z,96433.53
2023-01-30T01:48:14.690Z,96442.25
2023-01-30T01:50:44.304Z,96429.16
2023-01-30T01:53:12.025Z,96432.06
2023-01-30T01:55:40.941Z,96420.44
2023-01-30T01:58:17.472Z,96424.28
2023-01-30T02:00:44.042Z,96415.25
2023-01-30T02:03:12.662Z,96418.00
2023-01-30T02:05:42.930Z,96419.81
2023-01-30T02:08:16.999Z,96413.63
2023-01-30T02:11:01.607Z,96406.66
2023-01-30T02:16:59.921Z,96412.84
2023-01-30T02:19:26.484Z,96409.34
2023-01-30T02:22:08.200Z,96395.56
2023-01-30T02:24:43.837Z,96400.16
2023-01-30T02:27:13.562Z,96397.06
2023-01-30T02:29:49.291Z,96397.97
2023-01-30T02:32:26.124Z,96391.09
2023-01-30T02:35:09.691Z,96393.59
2023-01-30T02:37:39.031Z,96388.38
2023-01-30T02:40:05.519Z,96384.75
2023-01-30T02:42:32.038Z,96381.09
2023-01-30T02:45:01.525Z,96375.03
2023-01-30T02:47:34.624Z,96375.94
2023-01-30T02:50:05.748Z,96370.00
2023-01-30T02:52:34.088Z,96374.06
2023-01-30T02:55:00.632Z,96379.41
2023-01-30T02:57:27.449Z,96369.13
2023-01-30T02:59:58.793Z,96373.66
2023-01-30T03:02:25.369Z,96370.00
2023-01-30T03:04:51.920Z,96369.44
2023-01-30T03:07:27.193Z,96364.31
2023-01-30T03:09:56.721Z,96364.25
2023-01-30T03:12:39.699Z,96369.13
2023-01-30T03:15:06.412Z,96359.66
2023-01-30T03:17:33.144Z,96350.31
2023-01-30T03:19:59.995Z,96346.03
2023-01-30T03:22:26.606Z,96351.44
2023-01-30T03:24:53.738Z,96347.94
2023-01-30T03:27:21.653Z,96357.59
2023-01-30T03:29:48.168Z,96347.09
2023-01-30T03:32:14.701Z,96360.09
2023-01-30T03:34:41.885Z,96356.66
2023-01-30T03:37:08.750Z,96352.31
2023-01-30T03:39:35.435Z,96345.41
2023-01-30T03:42:02.010Z,96352.47
2023-01-30T03:44:28.504Z,96338.50
2023-01-30T03:46:55.021Z,96336.84
2023-01-30T03:49:21.626Z,96337.06
2023-01-30T03:51:48.245Z,96332.63
2023-01-30T03:54:14.746Z,96335.84
2023-01-30T03:56:41.247Z,96325.03
2023-01-30T03:59:07.754Z,96328.63
2023-01-30T04:01:34.410Z,96329.69
2023-01-30T04:04:00.977Z,96337.13
2023-01-30T04:06:27.503Z,96336.81
2023-01-30T04:08:54.057Z,96331.00
2023-01-30T04:11:21.094Z,96325.34
2023-01-30T04:13:47.630Z,96313.25
2023-01-30T04:16:19.122Z,96300.50
2023-01-30T04:18:45.775Z,96298.38
2023-01-30T04:21:13.230Z,96305.47
2023-01-30T04:23:40.227Z,96299.03
2023-01-30T04:26:07.505Z,96301.50
2023-01-30T04:28:34.318Z,96310.34
2023-01-30T04:31:01.127Z,96306.81
2023-01-30T04:33:27.663Z,96294.78
2023-01-30T04:35:58.329Z,96286.09
2023-01-30T04:38:26.007Z,96286.94
2023-01-30T04:40:53.225Z,96293.06
2023-01-30T04:43:20.740Z,96291.91
2023-01-30T04:45:48.091Z,96288.69
2023-01-30T04:48:15.071Z,96282.03
2023-01-30T04:50:42.385Z,96281.22
2023-01-30T04:53:09.244Z,96285.38
2023-01-30T04:55:36.171Z,96278.38
2023-01-30T04:58:02.797Z,96280.25
2023-01-30T05:00:29.441Z,96278.38
2023-01-30T05:02:56.213Z,96277.00
2023-01-30T05:05:23.472Z,96265.53
2023-01-30T05:07:50.064Z,96272.47
2023-01-30T05:10:16.906Z,96272.25
2023-01-30T05:12:43.397Z,96276.31
2023-01-30T05:15:10.515Z,96280.97
2023-01-30T05:17:37.410Z,96265.22
2023-01-30T05:20:04.464Z,96258.72
2023-01-30T05:22:30.989Z,96260.78
2023-01-30T05:24:57.677Z,96261.59
2023-01-30T05:27:24.233Z,96255.25
2023-01-30T05:29:50.731Z,96252.91
2023-01-30T05:32:18.132Z,96254.94
2023-01-30T05:34:45.117Z,96264.44
2023-01-30T05:37:12.062Z,96237.91
2023-01-30T05:39:38.721Z,96249.66
2023-01-30T05:42:05.502Z,96249.50
2023-01-30T05:44:32.038Z,96244.47
2023-01-30T05:46:58.641Z,96240.81
2023-01-30T05:49:25.212Z,96236.31
2023-01-30T05:51:51.801Z,96231.84
2023-01-30T05:54:18.362Z,96230.66
2023-01-30T05:56:48.468Z,96227.22
2023-01-30T05:59:15.431Z,96237.22
2023-01-30T06:01:41.993Z,96233.03
2023-01-30T06:04:08.678Z,96233.72
2023-01-30T06:06:35.207Z,96229.44
2023-01-30T06:09:01.821Z,96224.31
2023-01-30T06:11:28.398Z,96216.28
2023-01-30T06:13:54.990Z,96202.19
2023-01-30T06:16:21.665Z,96209.09
2023-01-30T06:18:48.351Z,96202.91
2023-01-30T06:21:15.877Z,96222.88
2023-01-30T06:23:42.845Z,96231.78
2023-01-30T06:26:09.780Z,96236.00
2023-01-30T06:28:36.756Z,96233.66
2023-01-30T06:31:05.471Z,96251.03
2023-01-30T06:33:31.993Z,96242.16
2023-01-30T06:35:58.496Z,96232.03
2023-01-30T06:38:26.145Z,96252.13
2023-01-30T06:40:52.856Z,96230.41
2023-01-30T06:43:19.405Z,96239.84
2023-01-30T06:45:46.031Z,96218.00
2023-01-30T06:48:12.572Z,96209.19
2023-01-30T06:50:39.092Z,96219.69
2023-01-30T06:53:06.867Z,96204.50
2023-01-30T06:55:36.974Z,96208.34
2023-01-30T06:58:07.984Z,96233.44
2023-01-30T07:00:34.951Z,96237.97
2023-01-30T07:03:01.676Z,96243.03
2023-01-30T07:05:31.893Z,96232.19
2023-01-30T07:07:58.403Z,96223.38
2023-01-30T07:10:26.297Z,96225.25
2023-01-30T07:12:53.615Z,96228.59
2023-01-30T07:15:20.646Z,96217.09
2023-01-30T07:17:47.344Z,96223.50
2023-01-30T07:20:13.943Z,96213.69
2023-01-30T07:22:40.490Z,96212.00
2023-01-30T07:25:07.484Z,96200.50
2023-01-30T07:27:34.466Z,96186.22
2023-01-30T07:30:01.115Z,96186.41
2023-01-30T07:32:27.615Z,96176.59
2023-01-30T07:34:54.171Z,96183.81
2023-01-30T07:37:20.717Z,96183.31
2023-01-30T07:39:47.187Z,96172.03
2023-01-30T07:42:13.724Z,96183.13
2023-01-30T07:44:40.234Z,96162.91
2023-01-30T07:47:06.768Z,96150.97
2023-01-30T07:49:33.336Z,96148.94
2023-01-30T07:51:59.827Z,96148.03
2023-01-30T07:54:26.855Z,96147.22
2023-01-30T07:56:53.600Z,96145.25
2023-01-30T07:59:20.140Z,96153.84
2023-01-30T08:01:46.697Z,96151.22
2023-01-30T08:04:13.273Z,96144.13
2023-01-30T08:06:39.874Z,96133.38
2023-01-30T08:09:06.866Z,96139.22
2023-01-30T08:11:33.456Z,96141.78
2023-01-30T08:14:00.130Z,96134.72
2023-01-30T08:16:26.759Z,96145.88
2023-01-30T08:18:53.285Z,96142.00
2023-01-30T08:21:19.816Z,96135.97
2023-01-30T08:23:46.388Z,96122.63
2023-01-30T08:26:13.034Z,96125.25
2023-01-30T08:28:39.747Z,96110.72
2023-01-30T08:31:09.847Z,96112.94
2023-01-30T08:33:36.454Z,96120.31
2023-01-30T08:36:02.943Z,96111.69
2023-01-30T08:38:29.492Z,96118.09
2023-01-30T08:40:58.043Z,96118.47
2023-01-30T08:43:24.553Z,96110.91
2023-01-30T08:45:53.253Z,96120.56
2023-01-30T08:48:19.760Z,96112.41
2023-01-30T08:50:46.261Z,96107.19
2023-01-30T08:53:12.775Z,96097.16
2023-01-30T08:55:39.238Z,96094.72
2023-01-30T08:58:05.750Z,96094.84
2023-01-30T09:00:32.245Z,96089.28
2023-01-30T09:02:58.786Z,96081.97
2023-01-30T09:05:25.312Z,96074.03
2023-01-30T09:07:51.805Z,96084.38
2023-01-30T09:10:18.796Z,96069.88
2023-01-30T09:12:46.604Z,96062.22
2023-01-30T09:15:13.299Z,96053.88
2023-01-30T09:17:40.035Z,96057.31
2023-01-30T09:20:07.251Z,96054.06
2023-01-30T09:22:33.745Z,96052.06
2023-01-30T09:25:00.311Z,96050.63
2023-01-30T09:27:26.790Z,96040.56
2023-01-30T09:29:53.310Z,96048.50
2023-01-30T09:32:19.800Z,96034.56
2023-01-30T09:34:46.328Z,96033.16
2023-01-30T09:37:12.922Z,96026.78
2023-01-30T09:39:39.461Z,96029.31
2023-01-30T09:42:05.945Z,96012.00
2023-01-30T09:44:44.916Z,96011.81
2023-01-30T09:47:11.464Z,96006.59
2023-01-30T09:49:40.767Z,95989.09
2023-01-30T09:52:25.799Z,95985.53
2023-01-30T09:54:58.594Z,95994.72
2023-01-30T09:57:25.908Z,95984.47
2023-01-30T10:00:01.855Z,95988.03
2023-01-30T10:02:57.511Z,95989.81
2023-01-30T10:05:31.024Z,95980.03
2023-01-30T10:08:07.269Z,95966.78
2023-01-30T10:10:33.765Z,95974.91
2023-01-30T10:13:06.397Z,95969.66
2023-01-30T10:15:32.905Z,95975.13
2023-01-30T10:18:18.160Z,95964.63
2023-01-30T10:20:50.087Z,95947.81
2023-01-30T10:23:16.574Z,95939.81
2023-01-30T10:26:12.534Z,95941.38
2023-01-30T10:28:43.085Z,95938.88
2023-01-30T10:31:14.351Z,95942.94
2023-01-30T10:33:50.359Z,95942.06
2023-01-30T10:36:23.441Z,95934.59
2023-01-30T10:38:51.181Z,95931.31
2023-01-30T10:41:17.701Z,95915.13
2023-01-30T10:43:45.506Z,95911.94
2023-01-30T10:46:30.733Z,95905.47
2023-01-30T10:49:15.640Z,95894.31
2023-01-30T10:51:42.155Z,95888.78
2023-01-30T10:54:19.738Z,95885.69
2023-01-30T10:57:05.312Z,95879.31
2023-01-30T10:59:34.969Z,95861.31
2023-01-30T11:02:19.884Z,95871.09
2023-01-30T11:05:12.541Z,95852.72
2023-01-30T11:07:39.699Z,95838.78
2023-01-30T11:10:14.869Z,95834.84
2023-01-30T11:12:41.377Z,95830.41
2023-01-30T11:15:09.080Z,95826.00
2023-01-30T11:17:37.250Z,95826.81
2023-01-30T11:20:12.504Z,95822.94
2023-01-30T11:22:45.557Z,95806.03
2023-01-30T11:25:16.430Z,95794.66
2023-01-30T11:27:44.607Z,95791.16
2023-01-30T11:30:15.972Z,95795.63
2023-01-30T11:32:47.997Z,95776.75
2023-01-30T11:35:14.498Z,95776.06
2023-01-30T11:37:42.249Z,95773.00
2023-01-30T11:40:18.488Z,95781.72
2023-01-30T11:42:46.607Z,95784.91
2023-01-30T11:45:17.816Z,95781.03
2023-01-30T11:47:57.028Z,95778.53
2023-01-30T11:50:28.573Z,95753.84
2023-01-30T11:53:01.875Z,95752.03
2023-01-30T11:55:28.656Z,95745.34
2023-01-30T11:57:58.769Z,95754.22
2023-01-30T12:00:29.469Z,95743.81
2023-01-30T12:02:57.053Z,95737.84
2023-01-30T12:05:25.847Z,95739.78
2023-01-30T12:07:53.059Z,95730.34
2023-01-30T12:10:20.023Z,95721.44
2023-01-30T12:12:49.231Z,95729.38
2023-01-30T12:15:18.546Z,95725.28
2023-01-30T12:17:56.381Z,95718.66
2023-01-30T12:20:25.896Z,95718.34
2023-01-30T12:22:55.267Z,95723.59
2023-01-30T12:25:32.889Z,95712.13
2023-01-30T12:28:05.344Z,95717.09
2023-01-30T12:30:36.092Z,95714.34
2023-01-30T12:33:04.929Z,95698.91
2023-01-30T12:35:38.337Z,95694.34
2023-01-30T12:38:10.066Z,95695.06
2023-01-30T12:40:47.189Z,95684.28
2023-01-30T12:43:25.602Z,95689.38
2023-01-30T12:46:11.091Z,95687.31
2023-01-30T12:49:10.322Z,95678.97
2023-01-30T12:52:00.795Z,95676.75
2023-01-30T12:54:59.431Z,95670.81
2023-01-30T12:57:44.088Z,95655.13
2023-01-30T13:00:10.617Z,95659.97
2023-01-30T13:02:42.936Z,95651.50
2023-01-30T13:05:22.198Z,95650.41
2023-01-30T13:08:02.732Z,95650.69
2023-01-30T13:10:29.183Z,95660.22
2023-01-30T13:12:58.786Z,95657.84
2023-01-30T13:15:30.293Z,95662.41
2023-01-30T13:18:02.857Z,95644.13
2023-01-30T13:20:32.164Z,95643.69
2023-01-30T13:23:10.671Z,95635.03
2023-01-30T13:25:41.638Z,95636.81
2023-01-30T13:28:14.225Z,95636.00
2023-01-30T13:30:41.565Z,95618.53
2023-01-30T13:33:14.073Z,95625.91
2023-01-30T13:35:46.905Z,95627.81
2023-01-30T13:38:18.614Z,95630.88
2023-01-30T13:40:46.078Z,95629.91
2023-01-30T13:43:18.750Z,95622.69
2023-01-30T13:45:46.577Z,95623.78
2023-01-30T13:48:19.235Z,95623.50
2023-01-30T13:50:45.767Z,95620.47
2023-01-30T13:53:20.178Z,95630.44
2023-01-30T13:55:57.534Z,95620.16
2023-01-30T13:58:44.302Z,95630.03
2023-01-30T14:01:12.871Z,95630.00
2023-01-30T14:03:44.241Z,95624.94
2023-01-30T14:06:12.740Z,95614.56
2023-01-30T14:08:41.062Z,95613.56
2023-01-30T14:11:29.116Z,95610.53
2023-01-30T14:14:00.154Z,95613.16
2023-01-30T14:16:39.529Z,95620.50
2023-01-30T14:19:21.055Z,95609.72
2023-01-30T14:22:18.526Z,95605.53
2023-01-30T14:24:45.041Z,95611.38
2023-01-30T14:27:40.936Z,95619.38
2023-01-30T14:30:26.235Z,95622.03
2023-01-30T14:32:54.958Z,95627.97
2023-01-30T14:35:22.882Z,95642.78
2023-01-30T14:38:04.966Z,95636.97
2023-01-30T14:40:33.110Z,95623.13
2023-01-30T14:43:22.734Z,95636.00
2023-01-30T14:45:56.774Z,95625.47
2023-01-30T14:48:44.294Z,95636.66
2023-01-30T14:51:12.809Z,95623.97
2023-01-30T14:53:49.343Z,95627.69
2023-01-30T14:56:16.033Z,95643.22
2023-01-30T14:58:59.729Z,95651.78
2023-01-30T15:01:26.391Z,95664.25
2023-01-30T15:03:53.103Z,95652.59
2023-01-30T15:06:20.392Z,95668.81
2023-01-30T15:08:47.463Z,95657.19
2023-01-30T15:11:33.776Z,95642.81
2023-01-30T15:14:32.822Z,95655.81
2023-01-30T15:17:09.358Z,95639.59
2023-01-30T15:19:50.126Z,95643.22
2023-01-30T15:22:23.397Z,95642.66
2023-01-30T15:25:08.658Z,95639.88
2023-01-30T15:27:47.429Z,95642.66
2023-01-30T15:30:46.514Z,95651.38
2023-01-30T15:33:22.789Z,95651.72
2023-01-30T15:35:53.029Z,95646.09
2023-01-30T15:38:25.411Z,95649.00
2023-01-30T15:40:56.473Z,95652.44
2023-01-30T15:43:38.395Z,95666.53
2023-01-30T15:46:08.138Z,95659.31
2023-01-30T15:48:58.157Z,95660.66
2023-01-30T15:51:27.428Z,95659.81
2023-01-30T15:53:55.542Z,95677.88
2023-01-30T15:56:24.689Z,95659.25
2023-01-30T15:58:51.599Z,95679.03
2023-01-30T16:01:19.925Z,95693.59
2023-01-30T16:03:46.837Z,95699.63
2023-01-30T16:06:36.165Z,95696.41
2023-01-30T16:09:18.435Z,95729.41
2023-01-30T16:11:44.952Z,95738.00
2023-01-30T16:14:15.501Z,95727.53
2023-01-30T16:16:46.195Z,95736.91
2023-01-30T16:19:19.417Z,95735.28
2023-01-30T16:21:46.447Z,95750.16
2023-01-30T16:24:29.795Z,95753.81
2023-01-30T16:27:01.040Z,95751.59
2023-01-30T16:29:29.023Z,95752.09
2023-01-30T16:31:55.966Z,95760.09
2023-01-30T16:34:35.617Z,95774.47
2023-01-30T16:37:04.345Z,95758.44
2023-01-30T16:39:30.963Z,95776.28
2023-01-30T16:41:58.404Z,95779.78
2023-01-30T16:44:26.421Z,95792.34
2023-01-30T16:46:57.312Z,95785.81
2023-01-30T16:49:26.691Z,95795.09
2023-01-30T16:52:05.362Z,95811.81
2023-01-30T16:54:33.794Z,95819.81
2023-01-30T16:57:01.494Z,95809.44
2023-01-30T16:59:32.761Z,95819.44
2023-01-30T17:02:00.963Z,95815.69
2023-01-30T17:04:31.593Z,95813.28
2023-01-30T17:06:58.204Z,95819.72
2023-01-30T17:09:39.755Z,95818.31
2023-01-30T17:12:32.624Z,95804.13
2023-01-30T17:15:14.408Z,95824.94
2023-01-30T17:17:41.572Z,95817.91
2023-01-30T17:20:08.545Z,95814.06
2023-01-30T17:22:35.194Z,95820.56
2023-01-30T17:25:03.504Z,95828.44
2023-01-30T17:27:31.094Z,95823.72
2023-01-30T17:29:57.857Z,95810.81
2023-01-30T17:32:24.387Z,95834.94
2023-01-30T17:34:50.913Z,95836.94
2023-01-30T17:37:19.900Z,95850.91
2023-01-30T17:39:46.438Z,95855.50
2023-01-30T17:42:13.659Z,95852.13
2023-01-30T17:44:40.718Z,95852.13
2023-01-30T17:47:09.876Z,95874.59
2023-01-30T17:49:36.391Z,95880.13
2023-01-30T17:52:02.928Z,95898.22
2023-01-30T17:54:32.092Z,95896.88
2023-01-30T17:57:03.122Z,95916.03
2023-01-30T17:59:29.653Z,95926.31
2023-01-30T18:01:56.190Z,95932.69
2023-01-30T18:04:22.708Z,95947.41
2023-01-30T18:06:59.296Z,95945.31
2023-01-30T18:09:27.051Z,95947.47
2023-01-30T18:11:53.615Z,95944.13
2023-01-30T18:14:20.536Z,95949.47
2023-01-30T18:16:48.388Z,95951.28
2023-01-30T18:19:16.224Z,95941.22
2023-01-30T18:21:45.187Z,95937.97
2023-01-30T18:24:12.697Z,95958.84
2023-01-30T18:26:40.529Z,95956.44
2023-01-30T18:29:07.686Z,95971.56
2023-01-30T18:31:34.423Z,95978.94
2023-01-30T18:34:01.054Z,95988.66
2023-01-30T18:36:29.545Z,95993.53
2023-01-30T18:38:56.074Z,95994.25
2023-01-30T18:41:23.768Z,95998.97
2023-01-30T18:43:54.621Z,96005.69
2023-01-30T18:46:21.651Z,95997.03
2023-01-30T18:48:48.235Z,96017.63
2023-01-30T18:51:22.558Z,96017.75
2023-01-30T18:53:50.000Z,96025.25
2023-01-30T18:56:18.185Z,96009.00
2023-01-30T18:58:49.805Z,96016.41
2023-01-30T19:01:17.497Z,96020.72
2023-01-30T19:03:44.298Z,96014.94
2023-01-30T19:06:11.873Z,96016.03
2023-01-30T19:08:38.648Z,96009.25
2023-01-30T19:11:31.142Z,96002.56
2023-01-30T19:13:57.821Z,96017.53
2023-01-30T19:16:25.834Z,96024.94
2023-01-30T19:29:30.657Z,96036.50
2023-01-30T19:31:57.293Z,96027.19
2023-01-30T19:34:23.852Z,96036.28
2023-01-30T19:36:50.442Z,96038.41
2023-01-30T19:39:17.031Z,96048.34
2023-01-30T19:41:43.560Z,96041.53
2023-01-30T19:44:11.743Z,96040.09
2023-01-30T19:46:38.402Z,96022.78
2023-01-30T19:49:05.776Z,96045.00
2023-01-30T19:51:33.766Z,96070.66
2023-01-30T19:54:04.508Z,96048.31
2023-01-30T19:56:31.565Z,96066.25
2023-01-30T19:58:59.508Z,96061.81
2023-01-30T20:01:29.800Z,96074.03
2023-01-30T20:03:57.167Z,96069.47
2023-01-30T20:06:28.120Z,96068.00
2023-01-30T20:09:05.417Z,96070.63
2023-01-30T20:11:33.283Z,96062.03
2023-01-30T20:13:59.900Z,96085.78
2023-01-30T20:16:27.680Z,96090.34
2023-01-30T20:18:55.909Z,96096.94
2023-01-30T20:21:22.951Z,96099.09
2023-01-30T20:23:49.937Z,96100.03
2023-01-30T20:26:18.556Z,96113.69
2023-01-30T20:28:45.139Z,96109.63
2023-01-30T20:31:22.588Z,96114.28
2023-01-30T20:33:49.610Z,96119.66
2023-01-30T20:36:18.759Z,96132.91
2023-01-30T20:38:46.336Z,96127.28
2023-01-30T20:41:15.005Z,96124.19
2023-01-30T20:43:42.489Z,96128.25
2023-01-30T20:46:13.092Z,96120.69
2023-01-30T20:48:40.521Z,96111.75
2023-01-30T20:51:07.094Z,96095.25
2023-01-30T20:53:33.857Z,96077.22
2023-01-30T20:56:00.791Z,96075.31
2023-01-30T20:58:28.203Z,96079.75
2023-01-30T21:00:55.304Z,96072.47
2023-01-30T21:03:25.518Z,96075.06
2023-01-30T21:05:56.068Z,96088.94
2023-01-30T21:08:22.587Z,96081.63
2023-01-30T21:10:49.181Z,96085.44
2023-01-30T21:13:15.700Z,96088.06
2023-01-30T21:15:42.204Z,96091.81
2023-01-30T21:18:08.711Z,96077.94
2023-01-30T21:20:35.596Z,96076.88
2023-01-30T21:23:02.265Z,96083.31
2023-01-30T21:25:28.751Z,96093.13
2023-01-30T21:27:55.332Z,96107.41
2023-01-30T21:30:21.871Z,96100.72
2023-01-30T21:32:48.405Z,96104.53
2023-01-30T21:35:15.308Z,96095.47
2023-01-30T21:38:00.283Z,96105.50
2023-01-30T21:40:45.212Z,96104.09
2023-01-30T21:43:14.652Z,96103.97
2023-01-30T21:45:41.763Z,96102.97
2023-01-30T21:48:08.358Z,96100.34
2023-01-30T21:50:34.945Z,96096.31
2023-01-30T21:53:02.017Z,96096.06
2023-01-30T21:55:28.540Z,96104.53
2023-01-30T21:57:55.543Z,96122.44
2023-01-30T22:00:22.131Z,96122.44
2023-01-30T22:02:51.848Z,96116.22
2023-01-30T22:05:18.675Z,96105.50
2023-01-30T22:07:45.423Z,96098.22
2023-01-30T22:10:11.947Z,96099.75
2023-01-30T22:12:40.244Z,96116.81
2023-01-30T22:15:07.928Z,96124.78
2023-01-30T22:17:34.548Z,96122.41
2023-01-30T22:20:01.126Z,96113.19
2023-01-30T22:22:30.232Z,96130.84
2023-01-30T22:24:56.798Z,96134.09
2023-01-30T22:27:23.326Z,96130.13
2023-01-30T22:29:49.835Z,96123.22
2023-01-30T22:32:16.378Z,96128.97
2023-01-30T22:34:42.901Z,96137.09
2023-01-30T22:37:09.466Z,96140.34
2023-01-30T22:39:36.036Z,96152.72
2023-01-30T22:42:02.586Z,96148.22
2023-01-30T22:44:29.097Z,96158.84
2023-01-30T22:46:55.636Z,96163.34
2023-01-30T22:49:22.204Z,96169.94
2023-01-30T22:51:49.121Z,96152.72
2023-01-30T22:54:16.302Z,96161.34
2023-01-30T22:56:44.281Z,96150.84
2023-01-30T22:59:11.238Z,96156.91
2023-01-30T23:01:42.010Z,96157.97
2023-01-30T23:04:12.852Z,96147.34
2023-01-30T23:06:40.508Z,96147.34
2023-01-30T23:09:08.566Z,96145.22
2023-01-30T23:11:36.919Z,96144.28
2023-01-30T23:14:10.613Z,96154.28
2023-01-30T23:16:38.042Z,96150.34
2023-01-30T23:19:05.177Z,96148.72
2023-01-30T23:21:35.905Z,96153.84
2023-01-30T23:24:10.371Z,96148.00
2023-01-30T23:26:38.749Z,96155.63
2023-01-30T23:29:09.287Z,96145.72
2023-01-30T23:31:36.733Z,96132.34
2023-01-30T23:34:04.445Z,96132.72
2023-01-30T23:36:31.172Z,96140.47
2023-01-30T23:38:58.383Z,96136.16
2023-01-30T23:41:28.375Z,96133.66
2023-01-30T23:43:55.625Z,96140.28
2023-01-30T23:46:26.348Z,96136.97
2023-01-30T23:48:56.578Z,96134.47
2023-01-30T23:51:24.244Z,96126.97
2023-01-30T23:53:51.412Z,96138.09
2023-01-30T23:56:18.908Z,96137.72
2023-01-30T23:58:45.719Z,96129.88
